CYPK weather

Pitt Meadows Airport
Pitt Meadows, British Columbia, Canada

Public forecast

Using degrees Celsius for public forecast. Weather courtesy of forecast.io.

METAR (pilot weather report)

Closest report is Abbotsford Airport, 17.9 nm (33.1 km) SE. Retrieved 2019/05/21 11:00 UTC (59 minutes ago):

CYXX 211100Z 00000KT 6SM BR FEW015 FEW035 BKN055 BKN100 10/09 A2972 RMK SF1SC2SC3AC2 SF TR SLP065

TAF (pilot weather forecast)

Closest forecast is Abbotsford Airport, 17.9 nm (33.1 km) SE. Retrieved 2019/05/21 06:42 UTC (5 hours ago):

TAF CYXX 210538Z 2106/2206 VRB03KT P6SM FEW005 SCT012 OVC030 TEMPO 2106/2109 3SM -RA BR SCT005 BKN012 OVC030 FM210900 VRB03KT P6SM SCT004 BKN015 OVC030 TEMPO 2109/2115 2SM -RA BR BKN004 OVC015 FM211500 VRB03KT P6SM SCT015 BKN030 TEMPO 2115/2121 P6SM -SHRA BKN015 FM212100 24008KT P6SM FEW030 SCT100 RMK NXT FCST BY 211200Z